< < Back
Terminal Aerodrome Forecast


Current Version              Previous Versions:   1  2  3  4  5  6  7  8  9  

Terminal Aerodrome Forecast

368
FTUS44 KMOB 281812 AAA
TAFMOB
TAF AMD
KMOB 281812Z 2818/2918 22004KT P6SM -TSRA VCTS BKN030CB BKN060
      BKN170
      TEMPO 2820/2824 VRB15G25KT 3SM TSRA BKN030CB
     FM290100 02003KT P6SM VCTS BKN050CB
     FM290300 01002KT P6SM OVC250
     FM291200 00000KT P6SM VCSH SCT035 BKN100=

Latest METAR

006
SAUS80 KWBC 282000 RRB
MTRMOB
METAR KMOB 281956Z 11005KT 7SM TSRA FEW050CB SCT110 24/23 A2996 RMK AO2
SLP143 FRQ LTGICCCCG ALQDS TS ALQDS MOV LTL P0013 T02440228
$


USA.gov is the U.S. government's official web portal to all federal, state and local government web resources and services.